createdAt,value
2018-02-08T00:00:13.483Z,-1.90
2018-02-08T00:02:40.959Z,-1.80
2018-02-08T00:05:08.422Z,-1.90
2018-02-08T00:07:36.683Z,-1.90
2018-02-08T00:10:04.161Z,-1.90
2018-02-08T00:12:31.647Z,-1.90
2018-02-08T00:14:59.113Z,-1.90
2018-02-08T00:17:26.609Z,-1.90
2018-02-08T00:19:54.087Z,-1.90
2018-02-08T00:22:33.549Z,-2.00
2018-02-08T00:25:01.017Z,-2.10
2018-02-08T00:27:28.518Z,-2.10
2018-02-08T00:29:55.986Z,-2.20
2018-02-08T00:32:23.450Z,-2.30
2018-02-08T00:34:50.922Z,-2.30
2018-02-08T00:37:18.386Z,-2.30
2018-02-08T00:39:45.956Z,-2.30
2018-02-08T00:42:13.413Z,-2.30
2018-02-08T00:44:41.021Z,-2.40
2018-02-08T00:47:08.595Z,-2.40
2018-02-08T00:49:36.061Z,-2.40
2018-02-08T00:52:03.526Z,-2.40
2018-02-08T00:54:30.994Z,-2.50
2018-02-08T00:56:59.229Z,-2.60
2018-02-08T00:59:26.695Z,-2.60
2018-02-08T01:01:54.201Z,-2.60
2018-02-08T01:04:21.693Z,-2.70
2018-02-08T01:06:49.179Z,-2.70
2018-02-08T01:09:16.642Z,-2.70
2018-02-08T01:11:44.110Z,-2.70
2018-02-08T01:14:11.579Z,-2.70
2018-02-08T01:16:39.106Z,-2.70
2018-02-08T01:19:06.573Z,-2.70
2018-02-08T01:21:34.067Z,-2.60
2018-02-08T01:24:01.559Z,-2.70
2018-02-08T01:26:29.138Z,-2.80
2018-02-08T01:28:56.837Z,-2.80
2018-02-08T01:31:24.306Z,-2.80
2018-02-08T01:33:51.811Z,-2.90
2018-02-08T01:36:19.278Z,-2.90
2018-02-08T01:38:46.781Z,-3.00
2018-02-08T01:41:14.253Z,-3.00
2018-02-08T01:43:41.721Z,-3.00
2018-02-08T01:46:09.190Z,-3.00
2018-02-08T01:48:37.465Z,-3.00
2018-02-08T01:51:04.929Z,-3.10
2018-02-08T01:53:32.414Z,-3.20
2018-02-08T01:55:59.890Z,-3.20
2018-02-08T01:58:27.377Z,-3.30
2018-02-08T02:00:54.841Z,-3.30
2018-02-08T02:03:23.090Z,-3.40
2018-02-08T02:05:50.581Z,-3.40
2018-02-08T02:08:18.060Z,-3.40
2018-02-08T02:10:45.553Z,-3.40
2018-02-08T02:13:13.138Z,-3.50
2018-02-08T02:15:40.737Z,-3.50
2018-02-08T02:18:08.310Z,-3.50
2018-02-08T02:20:35.774Z,-3.60
2018-02-08T02:23:03.250Z,-3.60
2018-02-08T02:25:30.714Z,-3.60
2018-02-08T02:27:58.242Z,-3.70
2018-02-08T02:30:25.722Z,-3.70
2018-02-08T02:32:53.202Z,-3.70
2018-02-08T02:35:20.686Z,-3.80
2018-02-08T02:37:48.170Z,-3.80
2018-02-08T02:40:15.630Z,-3.90
2018-02-08T02:42:43.100Z,-3.90
2018-02-08T02:45:10.622Z,-3.90
2018-02-08T02:47:38.094Z,-3.90
2018-02-08T02:50:06.329Z,-3.80
2018-02-08T02:52:33.845Z,-3.80
2018-02-08T02:55:01.307Z,-3.80
2018-02-08T02:57:28.779Z,-3.90
2018-02-08T02:59:56.308Z,-3.90
2018-02-08T03:02:24.544Z,-4.10
2018-02-08T03:04:52.053Z,-4.10
2018-02-08T03:07:19.533Z,-4.00
2018-02-08T03:09:47.017Z,-4.00
2018-02-08T03:12:14.485Z,-4.00
2018-02-08T03:14:41.956Z,-4.00
2018-02-08T03:17:11.021Z,-4.10
2018-02-08T03:19:38.498Z,-4.10
2018-02-08T03:22:06.736Z,-4.10
2018-02-08T03:24:34.993Z,-4.10
2018-02-08T03:27:02.509Z,-4.10
2018-02-08T03:29:30.745Z,-4.10
2018-02-08T03:31:58.223Z,-4.10
2018-02-08T03:34:25.689Z,-4.10
2018-02-08T03:36:53.929Z,-4.10
2018-02-08T03:39:21.396Z,-4.10
2018-02-08T03:41:48.867Z,-4.20
2018-02-08T03:44:17.098Z,-4.20
2018-02-08T03:46:44.625Z,-4.20
2018-02-08T03:49:12.130Z,-4.20
2018-02-08T03:51:39.614Z,-4.20
2018-02-08T03:54:07.117Z,-4.20
2018-02-08T03:56:34.632Z,-4.30
2018-02-08T03:59:02.141Z,-4.20
2018-02-08T04:01:29.671Z,-4.30
2018-02-08T04:03:57.255Z,-4.20
2018-02-08T04:06:24.714Z,-4.30
2018-02-08T04:08:52.227Z,-4.30
2018-02-08T04:11:19.693Z,-4.30
2018-02-08T04:13:47.175Z,-4.30
2018-02-08T04:16:14.651Z,-4.30
2018-02-08T04:18:42.175Z,-4.30
2018-02-08T04:21:09.640Z,-4.20
2018-02-08T04:23:37.121Z,-4.10
2018-02-08T04:26:04.591Z,-4.00
2018-02-08T04:28:32.106Z,-4.00
2018-02-08T04:30:59.581Z,-3.90
2018-02-08T04:33:27.155Z,-3.90
2018-02-08T04:35:55.394Z,-3.90
2018-02-08T04:38:34.681Z,-4.00
2018-02-08T04:41:14.081Z,-3.90
2018-02-08T04:43:53.604Z,-3.90
2018-02-08T04:46:33.062Z,-3.80
2018-02-08T04:49:00.543Z,-3.90
2018-02-08T04:51:28.019Z,-3.90
2018-02-08T04:53:55.541Z,-3.90
2018-02-08T04:56:23.122Z,-4.00
2018-02-08T04:58:50.589Z,-4.00
2018-02-08T05:01:18.056Z,-4.00
2018-02-08T05:03:45.562Z,-4.10
2018-02-08T05:06:13.040Z,-4.10
2018-02-08T05:08:40.517Z,-4.20
2018-02-08T05:11:07.981Z,-4.30
2018-02-08T05:13:35.484Z,-4.30
2018-02-08T05:16:02.946Z,-4.30
2018-02-08T05:18:30.423Z,-4.30
2018-02-08T05:20:57.935Z,-4.40
2018-02-08T05:23:25.401Z,-4.40
2018-02-08T05:25:52.914Z,-4.30
2018-02-08T05:28:20.488Z,-4.30
2018-02-08T05:30:47.959Z,-4.30
2018-02-08T05:33:15.451Z,-4.30
2018-02-08T05:35:42.925Z,-4.30
2018-02-08T05:38:10.434Z,-4.20
2018-02-08T05:40:37.901Z,-4.20
2018-02-08T05:43:05.477Z,-4.20
2018-02-08T05:45:32.946Z,-4.20
2018-02-08T05:48:00.419Z,-4.20
2018-02-08T05:50:28.062Z,-4.20
2018-02-08T05:52:55.534Z,-4.10
2018-02-08T05:55:23.066Z,-4.10
2018-02-08T05:57:50.636Z,-4.20
2018-02-08T06:00:18.155Z,-4.20
2018-02-08T06:02:45.679Z,-4.20
2018-02-08T06:05:13.261Z,-4.20
2018-02-08T06:07:40.773Z,-4.30
2018-02-08T06:10:08.253Z,-4.30
2018-02-08T06:12:35.726Z,-4.20
2018-02-08T06:15:03.957Z,-4.20
2018-02-08T06:17:31.445Z,-4.20
2018-02-08T06:19:58.942Z,-4.20
2018-02-08T06:22:26.614Z,-4.20
2018-02-08T06:24:54.090Z,-4.10
2018-02-08T06:27:21.581Z,-4.00
2018-02-08T06:29:49.050Z,-4.10
2018-02-08T06:32:16.521Z,-4.10
2018-02-08T06:34:44.003Z,-4.10
2018-02-08T06:37:11.744Z,-4.00
2018-02-08T06:39:39.987Z,-4.00
2018-02-08T06:42:07.498Z,-4.10
2018-02-08T06:44:34.966Z,-4.00
2018-02-08T06:47:02.462Z,-4.00
2018-02-08T06:49:30.045Z,-4.00
2018-02-08T06:51:57.634Z,-4.00
2018-02-08T06:54:25.100Z,-4.00
2018-02-08T06:56:52.588Z,-4.00
2018-02-08T06:59:20.075Z,-4.00
2018-02-08T07:01:47.557Z,-4.00
2018-02-08T07:04:15.027Z,-3.90
2018-02-08T07:06:42.617Z,-3.80
2018-02-08T07:09:10.081Z,-3.70
2018-02-08T07:11:37.547Z,-3.70
2018-02-08T07:14:05.078Z,-3.70
2018-02-08T07:16:34.081Z,-3.80
2018-02-08T07:19:01.568Z,-3.90
2018-02-08T07:21:29.022Z,-3.70
2018-02-08T07:23:56.490Z,-3.70
2018-02-08T07:26:23.958Z,-3.60
2018-02-08T07:28:51.434Z,-3.60
2018-02-08T07:31:19.665Z,-3.60
2018-02-08T07:33:47.178Z,-3.60
2018-02-08T07:36:14.640Z,-3.50
2018-02-08T07:38:42.112Z,-3.30
2018-02-08T07:41:09.623Z,-3.30
2018-02-08T07:43:37.097Z,-3.20
2018-02-08T07:46:04.561Z,-3.10
2018-02-08T07:48:32.041Z,-3.10
2018-02-08T07:50:59.519Z,-3.00
2018-02-08T07:53:26.997Z,-2.90
2018-02-08T07:55:54.469Z,-2.70
2018-02-08T07:58:22.085Z,-2.60
2018-02-08T08:00:49.568Z,-2.50
2018-02-08T08:03:17.045Z,-2.40
2018-02-08T08:05:44.541Z,-2.40
2018-02-08T08:08:12.019Z,-2.40
2018-02-08T08:10:39.494Z,-2.30
2018-02-08T08:13:07.074Z,-2.20
2018-02-08T08:15:34.555Z,-2.20
2018-02-08T08:18:02.041Z,-2.10
2018-02-08T08:20:29.511Z,-2.10
2018-02-08T08:22:56.980Z,-2.10
2018-02-08T08:25:24.482Z,-2.10
2018-02-08T08:27:51.946Z,-2.10
2018-02-08T08:30:19.417Z,-2.10
2018-02-08T08:32:46.934Z,-2.00
2018-02-08T08:35:14.429Z,-2.00
2018-02-08T08:37:41.913Z,-1.90
2018-02-08T08:40:09.408Z,-1.80
2018-02-08T08:42:36.966Z,-1.80
2018-02-08T08:45:04.439Z,-1.80
2018-02-08T08:47:31.937Z,-1.70
2018-02-08T08:49:59.403Z,-1.50
2018-02-08T08:52:27.007Z,-1.40
2018-02-08T08:54:54.485Z,-1.20
2018-02-08T08:57:21.946Z,-1.10
2018-02-08T08:59:49.412Z,-0.90
2018-02-08T09:02:16.875Z,-0.80
2018-02-08T09:04:45.102Z,-0.70
2018-02-08T09:07:12.585Z,-0.80
2018-02-08T09:09:40.042Z,-0.70
2018-02-08T09:12:08.293Z,-0.20
2018-02-08T09:14:35.761Z,-0.10
2018-02-08T09:17:03.251Z,0.10
2018-02-08T09:19:30.709Z,0.20
2018-02-08T09:21:58.222Z,0.20
2018-02-08T09:24:25.681Z,0.50
2018-02-08T09:26:53.165Z,0.70
2018-02-08T09:29:20.631Z,0.80
2018-02-08T09:31:48.085Z,0.80
2018-02-08T09:34:16.305Z,1.40
2018-02-08T09:36:43.825Z,1.40
2018-02-08T09:39:11.414Z,1.80
2018-02-08T09:41:38.872Z,2.10
2018-02-08T09:44:06.370Z,2.60
2018-02-08T09:46:33.829Z,2.90
2018-02-08T09:49:01.337Z,2.60
2018-02-08T09:51:28.790Z,2.30
2018-02-08T09:53:56.257Z,2.30
2018-02-08T09:56:24.480Z,2.20
2018-02-08T09:58:51.941Z,2.20
2018-02-08T10:01:20.170Z,2.60
2018-02-08T10:03:47.674Z,2.50
2018-02-08T10:06:15.129Z,2.30
2018-02-08T10:08:42.643Z,2.30
2018-02-08T10:11:10.168Z,2.30
2018-02-08T10:13:38.410Z,2.20
2018-02-08T10:16:05.889Z,2.10
2018-02-08T10:18:33.373Z,2.00
2018-02-08T10:21:00.857Z,1.80
2018-02-08T10:23:28.321Z,1.90
2018-02-08T10:25:55.794Z,1.70
2018-02-08T10:28:23.254Z,1.70
2018-02-08T10:30:51.499Z,2.00
2018-02-08T10:33:18.986Z,2.00
2018-02-08T10:35:46.470Z,2.00
2018-02-08T10:38:13.951Z,2.10
2018-02-08T10:40:41.423Z,2.00
2018-02-08T10:43:08.906Z,2.00
2018-02-08T10:45:36.375Z,2.30
2018-02-08T10:48:04.606Z,2.20
2018-02-08T10:50:32.070Z,2.10
2018-02-08T10:52:59.587Z,2.10
2018-02-08T10:55:27.078Z,2.00
2018-02-08T10:57:54.533Z,2.00
2018-02-08T11:00:22.007Z,1.80
2018-02-08T11:02:49.567Z,1.90
2018-02-08T11:05:17.797Z,1.70
2018-02-08T11:07:45.305Z,1.70
2018-02-08T11:10:12.804Z,1.80
2018-02-08T11:12:40.266Z,1.80
2018-02-08T11:15:07.725Z,2.00
2018-02-08T11:17:35.190Z,2.10
2018-02-08T11:20:02.650Z,2.30
2018-02-08T11:22:30.909Z,2.20
2018-02-08T11:24:58.372Z,2.10
2018-02-08T11:27:25.847Z,1.90
2018-02-08T11:29:53.330Z,1.60
2018-02-08T11:32:20.847Z,1.60
2018-02-08T11:34:48.321Z,1.50
2018-02-08T11:37:15.785Z,1.30
2018-02-08T11:39:43.249Z,1.50
2018-02-08T11:42:11.475Z,1.90
2018-02-08T11:44:38.945Z,1.90
2018-02-08T11:47:07.179Z,2.30
2018-02-08T11:49:34.700Z,2.30
2018-02-08T11:52:02.201Z,2.40
2018-02-08T11:54:29.783Z,2.40
2018-02-08T11:56:57.350Z,2.50
2018-02-08T11:59:24.824Z,2.70
2018-02-08T12:01:52.288Z,2.80
2018-02-08T12:04:19.761Z,2.90
2018-02-08T12:06:47.218Z,2.70
2018-02-08T12:09:15.457Z,2.70
2018-02-08T12:11:42.961Z,2.60
2018-02-08T12:14:10.433Z,2.70
2018-02-08T12:16:37.914Z,2.30
2018-02-08T12:19:05.399Z,2.20
2018-02-08T12:21:32.876Z,2.20
2018-02-08T12:24:00.337Z,2.10
2018-02-08T12:26:27.804Z,2.00
2018-02-08T12:28:56.042Z,2.20
2018-02-08T12:31:23.542Z,2.20
2018-02-08T12:33:51.030Z,2.10
2018-02-08T12:36:18.509Z,1.90
2018-02-08T12:38:45.982Z,1.80
2018-02-08T12:41:13.473Z,1.70
2018-02-08T12:43:40.946Z,1.70
2018-02-08T12:46:08.409Z,1.70
2018-02-08T12:48:35.878Z,1.80
2018-02-08T12:51:03.338Z,2.00
2018-02-08T12:53:30.894Z,2.00
2018-02-08T12:55:58.379Z,2.10
2018-02-08T12:58:25.965Z,2.10
2018-02-08T13:00:53.424Z,2.10
2018-02-08T13:03:20.917Z,2.10
2018-02-08T13:05:48.381Z,2.00
2018-02-08T13:08:15.914Z,1.90
2018-02-08T13:10:43.374Z,1.90
2018-02-08T13:13:10.845Z,1.90
2018-02-08T13:15:38.360Z,1.90
2018-02-08T13:18:05.900Z,2.10
2018-02-08T13:20:33.412Z,1.90
2018-02-08T13:23:00.898Z,1.90
2018-02-08T13:25:28.380Z,1.90
2018-02-08T13:27:55.832Z,1.80
2018-02-08T13:30:23.325Z,1.80
2018-02-08T13:32:50.785Z,1.80
2018-02-08T13:35:18.306Z,1.70
2018-02-08T13:37:45.769Z,1.70
2018-02-08T13:40:13.238Z,1.70
2018-02-08T13:42:40.706Z,1.80
2018-02-08T13:45:08.936Z,2.20
2018-02-08T13:47:49.254Z,2.20
2018-02-08T13:50:22.316Z,2.30
2018-02-08T13:53:06.590Z,2.40
2018-02-08T13:55:40.570Z,3.30
2018-02-08T13:58:14.090Z,3.20
2018-02-08T14:00:42.779Z,3.40
2018-02-08T14:03:10.243Z,3.30
2018-02-08T14:05:38.471Z,3.20
2018-02-08T14:08:05.980Z,3.20
2018-02-08T14:10:33.456Z,3.00
2018-02-08T14:13:00.920Z,3.10
2018-02-08T14:15:28.382Z,2.80
2018-02-08T14:17:55.847Z,2.80
2018-02-08T14:20:24.074Z,2.70
2018-02-08T14:22:51.544Z,2.70
2018-02-08T14:25:19.779Z,2.70
2018-02-08T14:27:47.278Z,2.70
2018-02-08T14:30:14.754Z,2.70
2018-02-08T14:32:42.226Z,2.40
2018-02-08T14:35:09.722Z,2.40
2018-02-08T14:37:37.186Z,2.40
2018-02-08T14:40:04.682Z,2.30
2018-02-08T14:42:32.172Z,2.20
2018-02-08T14:44:59.645Z,2.10
2018-02-08T14:47:27.234Z,2.10
2018-02-08T14:49:54.693Z,2.20
2018-02-08T14:52:22.206Z,2.10
2018-02-08T14:54:49.668Z,2.10
2018-02-08T14:57:17.126Z,2.10
2018-02-08T14:59:45.386Z,2.10
2018-02-08T15:02:12.863Z,2.10
2018-02-08T15:04:40.325Z,2.00
2018-02-08T15:07:07.782Z,1.90
2018-02-08T15:09:35.306Z,1.80
2018-02-08T15:12:02.775Z,1.70
2018-02-08T15:14:30.292Z,1.50
2018-02-08T15:16:57.755Z,1.40
2018-02-08T15:19:25.221Z,1.40
2018-02-08T15:21:52.785Z,1.30
2018-02-08T15:24:20.334Z,1.10
2018-02-08T15:26:47.797Z,1.10
2018-02-08T15:29:15.349Z,1.00
2018-02-08T15:31:42.812Z,1.00
2018-02-08T15:34:10.880Z,1.00
2018-02-08T15:36:38.424Z,0.90
2018-02-08T15:39:05.880Z,0.90
2018-02-08T15:41:34.913Z,0.90
2018-02-08T15:44:02.474Z,0.80
2018-02-08T15:46:30.063Z,0.80
2018-02-08T15:48:57.525Z,0.80
2018-02-08T15:51:25.028Z,0.70
2018-02-08T15:53:52.489Z,0.70
2018-02-08T15:56:20.005Z,0.60
2018-02-08T15:58:47.465Z,0.60
2018-02-08T16:01:15.734Z,0.50
2018-02-08T16:03:43.217Z,0.50
2018-02-08T16:06:10.686Z,0.50
2018-02-08T16:08:38.914Z,0.50
2018-02-08T16:11:06.385Z,0.40
2018-02-08T16:13:33.846Z,0.50
2018-02-08T16:16:01.376Z,0.40
2018-02-08T16:18:28.838Z,0.40
2018-02-08T16:20:56.310Z,0.30
2018-02-08T16:23:23.802Z,0.20
2018-02-08T16:25:51.278Z,0.20
2018-02-08T16:28:18.738Z,0.20
2018-02-08T16:30:46.194Z,0.20
2018-02-08T16:33:13.666Z,0.20
2018-02-08T16:35:41.299Z,0.20
2018-02-08T16:38:08.861Z,0.20
2018-02-08T16:40:36.334Z,0.20
2018-02-08T16:43:03.797Z,0.20
2018-02-08T16:45:31.258Z,0.10
2018-02-08T16:47:58.852Z,0.10
2018-02-08T16:50:26.499Z,0.10
2018-02-08T16:52:53.990Z,0.10
2018-02-08T16:55:22.209Z,0.10
2018-02-08T16:57:49.693Z,0.10
2018-02-08T17:00:17.176Z,0.10
2018-02-08T17:02:45.448Z,0.10
2018-02-08T17:05:12.914Z,0.10
2018-02-08T17:08:56.861Z,0.10
2018-02-08T17:11:24.612Z,0.10
2018-02-08T17:13:52.133Z,0.10
2018-02-08T17:16:19.618Z,0.10
2018-02-08T17:18:47.878Z,0.10
2018-02-08T17:21:16.120Z,0.10
2018-02-08T17:23:43.671Z,0.10
2018-02-08T17:26:12.158Z,0.10
2018-02-08T17:28:39.617Z,0.10
2018-02-08T17:31:07.122Z,0.10
2018-02-08T17:33:34.570Z,0.10
2018-02-08T17:36:02.234Z,0.10
2018-02-08T17:38:29.691Z,0.10
2018-02-08T17:40:57.161Z,0.00
2018-02-08T17:43:24.645Z,0.00
2018-02-08T17:45:52.101Z,0.10
2018-02-08T17:48:20.393Z,0.00
2018-02-08T17:50:48.607Z,0.00
2018-02-08T17:53:16.070Z,0.00
2018-02-08T17:55:44.300Z,0.00
2018-02-08T17:58:11.817Z,0.00
2018-02-08T18:00:39.278Z,0.00
2018-02-08T18:03:06.782Z,-0.10
2018-02-08T18:05:34.257Z,-0.10
2018-02-08T18:08:01.812Z,0.00
2018-02-08T18:10:30.057Z,-0.10
2018-02-08T18:12:57.590Z,-0.10
2018-02-08T18:15:25.821Z,-0.10
2018-02-08T18:17:53.318Z,-0.10
2018-02-08T18:20:20.867Z,-0.10
2018-02-08T18:22:49.166Z,-0.20
2018-02-08T18:25:17.399Z,-0.20
2018-02-08T18:27:44.873Z,-0.20
2018-02-08T18:30:12.378Z,-0.20
2018-02-08T18:32:39.916Z,-0.20
2018-02-08T18:35:07.425Z,-0.20
2018-02-08T18:37:34.921Z,-0.30
2018-02-08T18:40:02.402Z,-0.30
2018-02-08T18:42:29.905Z,-0.40
2018-02-08T18:44:57.553Z,-0.40
2018-02-08T18:47:25.058Z,-0.40
2018-02-08T18:49:52.599Z,-0.50
2018-02-08T18:52:20.515Z,-0.60
2018-02-08T18:54:48.753Z,-0.70
2018-02-08T18:57:16.368Z,-0.70
2018-02-08T18:59:43.946Z,-0.80
2018-02-08T19:02:11.495Z,-1.00
2018-02-08T19:04:38.956Z,-1.20
2018-02-08T19:07:07.187Z,-1.40
2018-02-08T19:09:34.691Z,-1.50
2018-02-08T19:12:02.901Z,-1.70
2018-02-08T19:14:30.469Z,-1.70
2018-02-08T19:16:58.034Z,-1.70
2018-02-08T19:19:25.585Z,-1.70
2018-02-08T19:21:53.853Z,-1.70
2018-02-08T19:24:21.333Z,-1.70
2018-02-08T19:26:48.822Z,-1.80
2018-02-08T19:29:16.297Z,-1.80
2018-02-08T19:31:43.778Z,-1.80
2018-02-08T19:34:12.968Z,-1.90
2018-02-08T19:36:40.459Z,-1.90
2018-02-08T19:39:08.712Z,-2.00
2018-02-08T19:41:37.074Z,-2.00
2018-02-08T19:44:05.322Z,-2.00
2018-02-08T19:46:32.973Z,-2.00
2018-02-08T19:49:00.855Z,-2.00
2018-02-08T19:51:28.658Z,-2.10
2018-02-08T19:53:57.175Z,-2.20
2018-02-08T19:56:24.693Z,-2.20
2018-02-08T19:58:52.274Z,-2.30
2018-02-08T20:01:20.170Z,-2.40
2018-02-08T20:03:47.721Z,-2.40
2018-02-08T20:06:16.328Z,-2.40
2018-02-08T20:08:44.120Z,-2.50
2018-02-08T20:11:11.805Z,-2.60
2018-02-08T20:13:39.302Z,-2.60
2018-02-08T20:16:06.968Z,-2.70
2018-02-08T20:18:35.491Z,-2.80
2018-02-08T20:21:02.982Z,-2.80
2018-02-08T20:23:30.502Z,-2.80
2018-02-08T20:25:58.089Z,-2.90
2018-02-08T20:28:25.562Z,-2.90
2018-02-08T20:30:58.906Z,-2.90
2018-02-08T20:33:27.250Z,-2.90
2018-02-08T20:35:54.718Z,-3.00
2018-02-08T20:38:22.983Z,-3.00
2018-02-08T20:40:50.480Z,-3.10
2018-02-08T20:43:26.406Z,-3.10
2018-02-08T20:45:53.891Z,-3.10
2018-02-08T20:48:21.365Z,-3.10
2018-02-08T20:50:49.641Z,-3.20
2018-02-08T20:53:17.163Z,-3.20
2018-02-08T20:55:44.637Z,-3.20
2018-02-08T20:58:12.186Z,-3.30
2018-02-08T21:00:40.734Z,-3.30
2018-02-08T21:03:08.286Z,-3.30
2018-02-08T21:05:35.770Z,-3.40
2018-02-08T21:08:03.247Z,-3.40
2018-02-08T21:10:31.506Z,-3.50
2018-02-08T21:12:58.978Z,-3.50
2018-02-08T21:15:26.445Z,-3.60
2018-02-08T21:17:54.054Z,-3.50
2018-02-08T21:20:22.295Z,-3.50
2018-02-08T21:22:49.802Z,-3.60
2018-02-08T21:25:17.278Z,-3.50
2018-02-08T21:27:44.754Z,-3.50
2018-02-08T21:30:12.251Z,-3.50
2018-02-08T21:32:39.851Z,-3.50
2018-02-08T21:35:07.414Z,-3.50
2018-02-08T21:37:34.906Z,-3.50
2018-02-08T21:40:02.419Z,-3.60
2018-02-08T21:42:29.894Z,-3.50
2018-02-08T21:44:57.454Z,-3.50
2018-02-08T21:47:24.997Z,-3.50
2018-02-08T21:49:53.613Z,-3.60
2018-02-08T21:52:21.097Z,-3.70
2018-02-08T21:54:48.605Z,-3.70
2018-02-08T21:57:16.146Z,-3.70
2018-02-08T21:59:44.386Z,-3.60
2018-02-08T22:02:11.878Z,-3.60
2018-02-08T22:04:39.368Z,-3.60
2018-02-08T22:07:06.843Z,-3.70
2018-02-08T22:09:34.313Z,-3.70
2018-02-08T22:12:01.825Z,-3.70
2018-02-08T22:14:29.349Z,-3.80
2018-02-08T22:16:56.938Z,-3.80
2018-02-08T22:19:24.489Z,-3.70
2018-02-08T22:21:51.961Z,-3.80
2018-02-08T22:24:19.437Z,-3.80
2018-02-08T22:26:46.945Z,-3.80
2018-02-08T22:29:14.409Z,-3.80
2018-02-08T22:31:41.930Z,-3.90
2018-02-08T22:34:09.502Z,-3.90
2018-02-08T22:36:36.965Z,-3.90
2018-02-08T22:39:04.447Z,-3.80
2018-02-08T22:41:31.956Z,-3.90
2018-02-08T22:43:59.436Z,-3.80
2018-02-08T22:46:26.920Z,-3.80
2018-02-08T22:48:54.402Z,-3.80
2018-02-08T22:51:21.873Z,-3.90
2018-02-08T22:53:49.368Z,-3.90
2018-02-08T22:56:16.837Z,-3.90
2018-02-08T22:58:44.309Z,-4.00
2018-02-08T23:01:11.786Z,-4.00
2018-02-08T23:03:39.254Z,-4.00
2018-02-08T23:06:06.726Z,-4.10
2018-02-08T23:08:34.281Z,-4.10
2018-02-08T23:11:01.878Z,-4.10
2018-02-08T23:13:29.333Z,-4.20
2018-02-08T23:15:56.821Z,-4.20
2018-02-08T23:18:24.325Z,-4.30
2018-02-08T23:20:51.801Z,-4.20
2018-02-08T23:23:19.269Z,-4.30
2018-02-08T23:25:46.766Z,-4.40
2018-02-08T23:28:14.269Z,-4.40
2018-02-08T23:30:41.741Z,-4.50
2018-02-08T23:33:09.221Z,-4.50
2018-02-08T23:35:36.694Z,-4.60
2018-02-08T23:38:04.190Z,-4.70
2018-02-08T23:40:31.671Z,-4.80
2018-02-08T23:42:59.132Z,-4.80
2018-02-08T23:45:26.633Z,-4.70
2018-02-08T23:47:54.122Z,-4.70
2018-02-08T23:50:21.576Z,-4.70
2018-02-08T23:52:49.088Z,-4.70
2018-02-08T23:55:16.580Z,-4.70
2018-02-08T23:57:44.053Z,-4.80
